»·PEaware :: N328AP KSAN-KASE

N328AP :: KSAN-KASE

FLIGHT INFORMATION

Flight Status: Arrived
Operator: Privately registered:
United States
More flights under this callsign
Pilot: Adam P. (15512)
Aircraft: BOMBARDIER BD-100 CHALLENGER 300
(CL30)
More flights by this aircraft type
Origin: KSAN San Diego Intl-Lindbergh
United States
Destination: KASE Aspen-Pitkin Co/Sardy
United States
More flights between these airports :: More routes between these airports
Route: ZZOOO1 MTBAL EED PITMN DBL
File this flight plan on PilotEdge
Remarks:
Altitude:
(Current/Filed)
39,000ft
Speed:
(Current/Filed)
468kts
Departed: 04-Oct-17 11:53 AM
Arrived: 04-Oct-17 01:23 PM
Distance/Time
Traveled:
634nm/1:30
Distance/Time
To Go:
Arrived

Flight Plot

Page will automatically refresh every two minutes.

Flight plan parsing failed; only flown route is shown


Map Options




Map Legend


Flown Route
Filed Route
Departure Airport
Arrival Airport
Navaid (VOR, NDB)
Fix

Horizontal Profiles

Position Reports

Time Latitude Longitude Heading Altitude Ground
Speed
04-Oct-17 11:40 32.732280 -117.177199 193 23ft 0kts
04-Oct-17 11:41 32.732280 -117.177199 193 23ft 0kts
04-Oct-17 11:42 32.732280 -117.177199 193 23ft 0kts
04-Oct-17 11:43 32.732280 -117.177199 193 23ft 0kts
04-Oct-17 11:44 32.732280 -117.177199 193 23ft 0kts
04-Oct-17 11:45 32.732280 -117.177199 193 23ft 0kts
04-Oct-17 11:46 32.732280 -117.177199 193 23ft 0kts
04-Oct-17 11:47 32.732280 -117.177199 193 23ft 0kts
04-Oct-17 11:48 32.732280 -117.177199 193 23ft 0kts
04-Oct-17 11:49 32.732280 -117.177199 193 23ft 0kts
04-Oct-17 11:50 32.732280 -117.177199 193 23ft 0kts
04-Oct-17 11:51 32.732280 -117.177199 193 23ft 0kts
04-Oct-17 11:52 32.732280 -117.177199 193 23ft 0kts
04-Oct-17 11:53 32.731971 -117.177257 182 23ft 6kts
04-Oct-17 11:54 32.731157 -117.175879 114 24ft 4kts
04-Oct-17 11:55 32.730985 -117.175589 133 24ft 0kts
04-Oct-17 11:56 32.730985 -117.175589 133 24ft 0kts
04-Oct-17 11:57 32.731615 -117.181670 285 16ft 121kts
04-Oct-17 11:58 32.745738 -117.236199 285 2085ft 190kts
04-Oct-17 11:59 32.740864 -117.307904 211 4996ft 268kts
04-Oct-17 12:00 32.673431 -117.278964 147 8775ft 287kts
04-Oct-17 12:01 32.630357 -117.196777 99 10919ft 352kts
04-Oct-17 12:02 32.617751 -117.081218 99 13944ft 366kts
04-Oct-17 12:03 32.606043 -116.958902 99 16498ft 385kts
04-Oct-17 12:04 32.620246 -116.830539 78 18747ft 410kts
04-Oct-17 12:05 32.706109 -116.743328 24 20746ft 430kts
04-Oct-17 12:06 32.815390 -116.684226 21 21742ft 448kts
04-Oct-17 12:07 32.930536 -116.626484 19 25035ft 465kts
04-Oct-17 12:08 33.052207 -116.565045 20 27447ft 493kts
04-Oct-17 12:09 33.158074 -116.509679 19 29322ft 511kts
04-Oct-17 12:10 33.277090 -116.447318 18 31909ft 512kts
04-Oct-17 12:11 33.400896 -116.364646 41 34476ft 523kts
04-Oct-17 12:12 33.476123 -116.253306 54 36660ft 518kts
04-Oct-17 12:13 33.574402 -116.090618 55 39005ft 521kts
04-Oct-17 12:14 33.653802 -115.976002 47 39029ft 557kts
04-Oct-17 12:15 33.773646 -115.816920 47 39024ft 550kts
04-Oct-17 12:16 33.875671 -115.681183 47 39029ft 551kts
04-Oct-17 12:17 33.977685 -115.544962 47 39081ft 550kts
04-Oct-17 12:18 34.062687 -115.431055 47 39182ft 551kts
04-Oct-17 12:19 34.162135 -115.297351 48 39114ft 550kts
04-Oct-17 12:20 34.280534 -115.137437 48 39058ft 549kts
04-Oct-17 12:21 34.364746 -115.023264 48 39061ft 546kts
04-Oct-17 12:22 34.463618 -114.888755 48 39064ft 544kts
04-Oct-17 12:23 34.563478 -114.752369 48 39068ft 545kts
04-Oct-17 12:24 34.662559 -114.616510 48 39065ft 545kts
04-Oct-17 12:25 34.761777 -114.479899 48 39074ft 545kts
04-Oct-17 12:26 34.854951 -114.341279 51 39056ft 545kts
04-Oct-17 12:27 34.926191 -114.234486 51 39033ft 548kts
04-Oct-17 12:28 35.019088 -114.094744 51 39104ft 558kts
04-Oct-17 12:29 35.115089 -113.949761 51 39151ft 561kts
04-Oct-17 12:30 35.212334 -113.802294 51 39153ft 560kts
04-Oct-17 12:31 35.309490 -113.654333 51 39157ft 560kts
04-Oct-17 12:32 35.406049 -113.506647 51 39161ft 560kts
04-Oct-17 12:33 35.502568 -113.358417 51 39166ft 560kts
04-Oct-17 12:34 35.597488 -113.212005 51 39181ft 560kts
04-Oct-17 12:35 35.693597 -113.063107 51 39276ft 560kts
04-Oct-17 12:36 35.789430 -112.913969 51 39314ft 558kts
04-Oct-17 12:37 35.884522 -112.765373 51 39320ft 556kts
04-Oct-17 12:38 35.978995 -112.617139 51 39324ft 556kts
04-Oct-17 12:39 36.062281 -112.485900 51 39328ft 556kts
04-Oct-17 12:40 36.153942 -112.340888 52 39311ft 556kts
04-Oct-17 12:41 36.248497 -112.190647 52 39303ft 556kts
04-Oct-17 12:42 36.342930 -112.039926 52 39306ft 556kts
04-Oct-17 12:43 36.436476 -111.889967 52 39244ft 556kts
04-Oct-17 12:44 36.530123 -111.739176 52 39169ft 556kts
04-Oct-17 12:45 36.623215 -111.588611 52 39173ft 556kts
04-Oct-17 12:46 36.716729 -111.436686 52 39176ft 556kts
04-Oct-17 12:47 36.808765 -111.286524 53 39164ft 556kts
04-Oct-17 12:48 36.901319 -111.134788 53 39168ft 556kts
04-Oct-17 12:49 36.993986 -110.982140 52 39171ft 553kts
04-Oct-17 12:50 37.085726 -110.830366 52 39176ft 557kts
04-Oct-17 12:51 37.177491 -110.677934 52 39165ft 561kts
04-Oct-17 12:52 37.270412 -110.522870 52 39230ft 560kts
04-Oct-17 12:53 37.363137 -110.367353 52 39327ft 561kts
04-Oct-17 12:54 37.453682 -110.214801 53 39314ft 560kts
04-Oct-17 12:55 37.545749 -110.058956 53 39319ft 561kts
04-Oct-17 12:56 37.637686 -109.902593 52 39323ft 561kts
04-Oct-17 12:57 37.729594 -109.745549 53 39328ft 561kts
04-Oct-17 12:58 37.821375 -109.587987 53 39332ft 561kts
04-Oct-17 12:59 37.912296 -109.431112 53 39336ft 561kts
04-Oct-17 13:00 38.001891 -109.275870 53 39322ft 560kts
04-Oct-17 13:01 38.092649 -109.117749 53 39312ft 560kts
04-Oct-17 13:02 38.178193 -108.967988 52 39260ft 524kts
04-Oct-17 13:03 38.264028 -108.818422 52 38110ft 536kts
04-Oct-17 13:04 38.350987 -108.670213 51 37463ft 518kts
04-Oct-17 13:05 38.437353 -108.526144 50 35246ft 528kts
04-Oct-17 13:06 38.525762 -108.381081 54 34806ft 523kts
04-Oct-17 13:07 38.597921 -108.229655 57 32040ft 520kts
04-Oct-17 13:08 38.677576 -108.081509 56 28714ft 496kts
04-Oct-17 13:09 38.752735 -107.945003 57 25879ft 466kts
04-Oct-17 13:10 38.824816 -107.814100 57 23585ft 442kts
04-Oct-17 13:11 38.892508 -107.690810 57 20558ft 416kts
04-Oct-17 13:12 38.956737 -107.572925 57 20201ft 404kts
04-Oct-17 13:13 39.022753 -107.451988 56 20226ft 425kts
04-Oct-17 13:14 39.088526 -107.331106 56 20253ft 407kts
04-Oct-17 13:15 39.158253 -107.239321 43 19797ft 344kts
04-Oct-17 13:16 39.225821 -107.156591 43 18305ft 335kts
04-Oct-17 13:17 39.291229 -107.076553 43 17041ft 315kts
04-Oct-17 13:18 39.359354 -107.049565 329 15712ft 282kts
04-Oct-17 13:19 39.427640 -107.086626 329 14098ft 277kts
04-Oct-17 13:20 39.500529 -107.097024 41 14001ft 301kts
04-Oct-17 13:21 39.495214 -107.007183 128 13997ft 270kts
04-Oct-17 13:22 39.445265 -106.957943 181 14046ft 209kts
04-Oct-17 13:23 39.391313 -106.948794 167 13993ft 189kts
04-Oct-17 13:24 39.338966 -106.924395 165 12706ft 206kts
04-Oct-17 13:25 39.284211 -106.898380 165 9447ft 213kts
04-Oct-17 13:26 39.236910 -106.875376 164 7747ft 140kts
04-Oct-17 13:27 39.219370 -106.866261 74 7773ft 8kts
04-Oct-17 13:28 39.221072 -106.866688 339 7761ft 20kts
04-Oct-17 13:29 39.223880 -106.866759 232 7738ft 1kts

Navigation Log

Ident Type
Flight plan parsing failed, navigation log unavailable